sensor_id;sensor_type;location;lat;lon;timestamp;P1;durP1;ratioP1;P2;durP2;ratioP2
3943;SDS011;1986;52.546;13.428;2023-05-19T00:02:24;13.60;;;13.10;;
3943;SDS011;1986;52.546;13.428;2023-05-19T00:04:51;13.77;;;13.27;;
3943;SDS011;1986;52.546;13.428;2023-05-19T00:07:19;13.20;;;12.80;;
3943;SDS011;1986;52.546;13.428;2023-05-19T00:09:49;13.43;;;12.93;;
3943;SDS011;1986;52.546;13.428;2023-05-19T00:12:16;13.20;;;12.80;;
3943;SDS011;1986;52.546;13.428;2023-05-19T00:14:45;13.20;;;12.80;;
3943;SDS011;1986;52.546;13.428;2023-05-19T00:17:13;13.97;;;13.43;;
3943;SDS011;1986;52.546;13.428;2023-05-19T00:19:40;13.80;;;13.30;;
3943;SDS011;1986;52.546;13.428;2023-05-19T00:22:09;13.13;;;12.73;;
3943;SDS011;1986;52.546;13.428;2023-05-19T00:24:36;12.60;;;12.20;;
3943;SDS011;1986;52.546;13.428;2023-05-19T00:27:03;12.80;;;12.40;;
3943;SDS011;1986;52.546;13.428;2023-05-19T00:29:30;12.80;;;12.40;;
3943;SDS011;1986;52.546;13.428;2023-05-19T00:31:58;13.33;;;12.83;;
3943;SDS011;1986;52.546;13.428;2023-05-19T00:34:25;13.93;;;13.33;;
3943;SDS011;1986;52.546;13.428;2023-05-19T00:36:52;13.17;;;12.77;;
3943;SDS011;1986;52.546;13.428;2023-05-19T00:39:19;12.73;;;12.33;;
3943;SDS011;1986;52.546;13.428;2023-05-19T00:41:46;12.80;;;12.40;;
3943;SDS011;1986;52.546;13.428;2023-05-19T00:44:13;13.00;;;12.60;;
3943;SDS011;1986;52.546;13.428;2023-05-19T00:46:40;13.13;;;12.73;;
3943;SDS011;1986;52.546;13.428;2023-05-19T00:49:08;13.87;;;13.33;;
3943;SDS011;1986;52.546;13.428;2023-05-19T00:51:35;12.60;;;12.20;;
3943;SDS011;1986;52.546;13.428;2023-05-19T00:54:02;12.60;;;12.20;;
3943;SDS011;1986;52.546;13.428;2023-05-19T00:56:29;12.70;;;12.30;;
3943;SDS011;1986;52.546;13.428;2023-05-19T00:58:57;12.50;;;12.10;;
3943;SDS011;1986;52.546;13.428;2023-05-19T01:01:24;13.80;;;13.27;;
3943;SDS011;1986;52.546;13.428;2023-05-19T01:03:51;12.90;;;12.50;;
3943;SDS011;1986;52.546;13.428;2023-05-19T01:06:22;12.70;;;12.30;;
3943;SDS011;1986;52.546;13.428;2023-05-19T01:08:49;12.70;;;12.30;;
3943;SDS011;1986;52.546;13.428;2023-05-19T01:11:22;14.37;;;13.30;;
3943;SDS011;1986;52.546;13.428;2023-05-19T01:13:49;14.50;;;13.03;;
3943;SDS011;1986;52.546;13.428;2023-05-19T01:16:19;12.57;;;12.17;;
3943;SDS011;1986;52.546;13.428;2023-05-19T01:18:51;13.97;;;13.10;;
3943;SDS011;1986;52.546;13.428;2023-05-19T01:30:53;12.37;;;11.97;;
3943;SDS011;1986;52.546;13.428;2023-05-19T01:33:23;12.63;;;12.23;;
3943;SDS011;1986;52.546;13.428;2023-05-19T01:35:51;14.53;;;13.20;;
3943;SDS011;1986;52.546;13.428;2023-05-19T01:38:20;12.87;;;12.37;;
3943;SDS011;1986;52.546;13.428;2023-05-19T01:40:49;12.80;;;12.40;;
3943;SDS011;1986;52.546;13.428;2023-05-19T01:43:17;13.10;;;12.70;;
3943;SDS011;1986;52.546;13.428;2023-05-19T01:45:46;12.50;;;12.10;;
3943;SDS011;1986;52.546;13.428;2023-05-19T01:48:15;12.87;;;12.47;;
3943;SDS011;1986;52.546;13.428;2023-05-19T01:50:46;12.00;;;11.60;;
3943;SDS011;1986;52.546;13.428;2023-05-19T01:53:13;11.90;;;11.60;;
3943;SDS011;1986;52.546;13.428;2023-05-19T01:55:42;12.93;;;12.43;;
3943;SDS011;1986;52.546;13.428;2023-05-19T01:58:14;12.00;;;11.70;;
3943;SDS011;1986;52.546;13.428;2023-05-19T02:00:51;12.67;;;12.27;;
3943;SDS011;1986;52.546;13.428;2023-05-19T02:03:28;11.73;;;11.43;;
3943;SDS011;1986;52.546;13.428;2023-05-19T02:06:05;12.13;;;11.77;;
3943;SDS011;1986;52.546;13.428;2023-05-19T02:08:42;11.40;;;11.10;;
3943;SDS011;1986;52.546;13.428;2023-05-19T02:11:13;11.40;;;11.10;;
3943;SDS011;1986;52.546;13.428;2023-05-19T02:13:45;11.20;;;10.90;;
3943;SDS011;1986;52.546;13.428;2023-05-19T02:16:15;11.40;;;11.10;;
3943;SDS011;1986;52.546;13.428;2023-05-19T02:18:44;11.70;;;11.40;;
3943;SDS011;1986;52.546;13.428;2023-05-19T02:21:12;11.33;;;11.03;;
3943;SDS011;1986;52.546;13.428;2023-05-19T02:23:39;11.77;;;11.37;;
3943;SDS011;1986;52.546;13.428;2023-05-19T02:26:07;11.37;;;11.07;;
3943;SDS011;1986;52.546;13.428;2023-05-19T02:28:34;11.10;;;10.80;;
3943;SDS011;1986;52.546;13.428;2023-05-19T02:31:02;11.43;;;11.13;;
3943;SDS011;1986;52.546;13.428;2023-05-19T02:33:32;11.23;;;10.93;;
3943;SDS011;1986;52.546;13.428;2023-05-19T02:36:03;11.10;;;10.80;;
3943;SDS011;1986;52.546;13.428;2023-05-19T02:38:30;11.40;;;11.10;;
3943;SDS011;1986;52.546;13.428;2023-05-19T02:40:57;11.43;;;11.13;;
3943;SDS011;1986;52.546;13.428;2023-05-19T02:43:24;25.93;;;12.30;;
3943;SDS011;1986;52.546;13.428;2023-05-19T02:45:54;11.07;;;10.77;;
3943;SDS011;1986;52.546;13.428;2023-05-19T02:48:23;11.30;;;11.00;;
3943;SDS011;1986;52.546;13.428;2023-05-19T02:50:51;11.10;;;10.80;;
3943;SDS011;1986;52.546;13.428;2023-05-19T02:53:19;11.90;;;11.50;;
3943;SDS011;1986;52.546;13.428;2023-05-19T02:55:46;11.43;;;11.10;;
3943;SDS011;1986;52.546;13.428;2023-05-19T02:58:15;11.07;;;10.77;;
3943;SDS011;1986;52.546;13.428;2023-05-19T03:00:44;10.90;;;10.60;;
3943;SDS011;1986;52.546;13.428;2023-05-19T03:03:11;12.73;;;12.13;;
3943;SDS011;1986;52.546;13.428;2023-05-19T03:05:40;10.73;;;10.43;;
3943;SDS011;1986;52.546;13.428;2023-05-19T03:08:07;10.10;;;9.90;;
3943;SDS011;1986;52.546;13.428;2023-05-19T03:10:35;11.47;;;10.63;;
3943;SDS011;1986;52.546;13.428;2023-05-19T03:13:02;11.00;;;10.70;;
3943;SDS011;1986;52.546;13.428;2023-05-19T03:15:29;12.10;;;11.60;;
3943;SDS011;1986;52.546;13.428;2023-05-19T03:17:58;10.63;;;10.33;;
3943;SDS011;1986;52.546;13.428;2023-05-19T03:20:26;10.90;;;10.60;;
3943;SDS011;1986;52.546;13.428;2023-05-19T03:22:54;10.57;;;10.27;;
3943;SDS011;1986;52.546;13.428;2023-05-19T03:25:21;10.90;;;10.60;;
3943;SDS011;1986;52.546;13.428;2023-05-19T03:27:49;10.40;;;10.13;;
3943;SDS011;1986;52.546;13.428;2023-05-19T03:30:16;10.37;;;10.17;;
3943;SDS011;1986;52.546;13.428;2023-05-19T03:32:43;9.90;;;9.70;;
3943;SDS011;1986;52.546;13.428;2023-05-19T03:35:10;10.90;;;10.60;;
3943;SDS011;1986;52.546;13.428;2023-05-19T03:37:37;9.97;;;9.77;;
3943;SDS011;1986;52.546;13.428;2023-05-19T03:40:05;9.90;;;9.70;;
3943;SDS011;1986;52.546;13.428;2023-05-19T03:42:33;10.37;;;10.10;;
3943;SDS011;1986;52.546;13.428;2023-05-19T03:45:01;10.23;;;10.03;;
3943;SDS011;1986;52.546;13.428;2023-05-19T03:47:28;10.13;;;9.93;;
3943;SDS011;1986;52.546;13.428;2023-05-19T03:49:55;11.03;;;10.73;;
3943;SDS011;1986;52.546;13.428;2023-05-19T03:52:22;10.87;;;10.50;;
3943;SDS011;1986;52.546;13.428;2023-05-19T03:54:49;9.93;;;9.73;;
3943;SDS011;1986;52.546;13.428;2023-05-19T03:57:17;9.60;;;9.40;;
3943;SDS011;1986;52.546;13.428;2023-05-19T03:59:44;10.23;;;10.03;;
3943;SDS011;1986;52.546;13.428;2023-05-19T04:02:13;10.73;;;10.43;;
3943;SDS011;1986;52.546;13.428;2023-05-19T04:04:40;11.10;;;10.70;;
3943;SDS011;1986;52.546;13.428;2023-05-19T04:07:06;10.60;;;10.30;;
3943;SDS011;1986;52.546;13.428;2023-05-19T04:09:33;23.80;;;11.47;;
3943;SDS011;1986;52.546;13.428;2023-05-19T04:12:01;11.03;;;10.63;;
3943;SDS011;1986;52.546;13.428;2023-05-19T04:14:28;10.57;;;10.27;;
3943;SDS011;1986;52.546;13.428;2023-05-19T04:16:55;11.20;;;10.77;;
3943;SDS011;1986;52.546;13.428;2023-05-19T04:19:24;11.03;;;10.73;;
3943;SDS011;1986;52.546;13.428;2023-05-19T04:21:51;11.80;;;11.50;;
3943;SDS011;1986;52.546;13.428;2023-05-19T04:24:18;11.37;;;10.97;;
3943;SDS011;1986;52.546;13.428;2023-05-19T04:26:44;11.57;;;11.27;;
3943;SDS011;1986;52.546;13.428;2023-05-19T04:29:14;10.80;;;10.50;;
3943;SDS011;1986;52.546;13.428;2023-05-19T04:31:42;11.50;;;11.20;;
3943;SDS011;1986;52.546;13.428;2023-05-19T04:34:08;11.30;;;11.00;;
3943;SDS011;1986;52.546;13.428;2023-05-19T04:36:37;11.70;;;11.40;;
3943;SDS011;1986;52.546;13.428;2023-05-19T04:39:04;12.40;;;12.00;;
3943;SDS011;1986;52.546;13.428;2023-05-19T04:41:35;11.63;;;11.33;;
3943;SDS011;1986;52.546;13.428;2023-05-19T04:44:04;12.00;;;11.60;;
3943;SDS011;1986;52.546;13.428;2023-05-19T04:46:32;12.10;;;11.70;;
3943;SDS011;1986;52.546;13.428;2023-05-19T04:48:59;11.57;;;11.27;;
3943;SDS011;1986;52.546;13.428;2023-05-19T04:51:27;12.60;;;12.20;;
3943;SDS011;1986;52.546;13.428;2023-05-19T04:53:56;12.50;;;12.10;;
3943;SDS011;1986;52.546;13.428;2023-05-19T04:56:23;12.20;;;11.80;;
3943;SDS011;1986;52.546;13.428;2023-05-19T04:58:51;14.23;;;13.73;;
3943;SDS011;1986;52.546;13.428;2023-05-19T05:01:18;13.40;;;13.00;;
3943;SDS011;1986;52.546;13.428;2023-05-19T05:03:49;13.57;;;13.00;;
3943;SDS011;1986;52.546;13.428;2023-05-19T05:06:19;14.00;;;13.50;;
3943;SDS011;1986;52.546;13.428;2023-05-19T05:08:46;13.90;;;13.40;;
3943;SDS011;1986;52.546;13.428;2023-05-19T05:11:14;13.37;;;12.97;;
3943;SDS011;1986;52.546;13.428;2023-05-19T05:13:42;13.90;;;13.30;;
3943;SDS011;1986;52.546;13.428;2023-05-19T05:16:10;13.80;;;13.30;;
3943;SDS011;1986;52.546;13.428;2023-05-19T05:18:40;14.20;;;13.70;;
3943;SDS011;1986;52.546;13.428;2023-05-19T05:21:08;14.50;;;14.00;;
3943;SDS011;1986;52.546;13.428;2023-05-19T05:23:36;15.43;;;14.83;;
3943;SDS011;1986;52.546;13.428;2023-05-19T05:26:11;15.60;;;15.00;;
3943;SDS011;1986;52.546;13.428;2023-05-19T05:28:43;15.60;;;15.00;;
3943;SDS011;1986;52.546;13.428;2023-05-19T05:31:10;16.20;;;15.50;;
3943;SDS011;1986;52.546;13.428;2023-05-19T05:33:37;16.20;;;15.50;;
3943;SDS011;1986;52.546;13.428;2023-05-19T05:36:05;16.10;;;15.40;;
3943;SDS011;1986;52.546;13.428;2023-05-19T05:38:33;16.70;;;16.00;;
3943;SDS011;1986;52.546;13.428;2023-05-19T05:41:05;15.93;;;15.23;;
3943;SDS011;1986;52.546;13.428;2023-05-19T05:43:40;16.63;;;15.83;;
3943;SDS011;1986;52.546;13.428;2023-05-19T05:46:08;15.70;;;15.10;;
3943;SDS011;1986;52.546;13.428;2023-05-19T05:48:36;16.40;;;15.70;;
3943;SDS011;1986;52.546;13.428;2023-05-19T05:51:03;16.70;;;16.00;;
3943;SDS011;1986;52.546;13.428;2023-05-19T05:53:31;16.60;;;15.70;;
3943;SDS011;1986;52.546;13.428;2023-05-19T05:56:19;17.17;;;16.37;;
3943;SDS011;1986;52.546;13.428;2023-05-19T06:01:51;17.23;;;16.43;;
3943;SDS011;1986;52.546;13.428;2023-05-19T06:04:19;18.00;;;17.10;;
3943;SDS011;1986;52.546;13.428;2023-05-19T06:06:46;18.30;;;17.40;;
3943;SDS011;1986;52.546;13.428;2023-05-19T06:09:13;18.07;;;17.17;;
3943;SDS011;1986;52.546;13.428;2023-05-19T06:11:44;18.00;;;17.10;;
3943;SDS011;1986;52.546;13.428;2023-05-19T06:14:16;18.27;;;17.30;;
3943;SDS011;1986;52.546;13.428;2023-05-19T06:16:44;18.20;;;17.30;;
3943;SDS011;1986;52.546;13.428;2023-05-19T06:19:12;18.50;;;17.60;;
3943;SDS011;1986;52.546;13.428;2023-05-19T06:21:39;19.37;;;18.37;;
3943;SDS011;1986;52.546;13.428;2023-05-19T06:24:06;19.97;;;18.87;;
3943;SDS011;1986;52.546;13.428;2023-05-19T06:26:33;19.73;;;18.63;;
3943;SDS011;1986;52.546;13.428;2023-05-19T06:29:01;20.27;;;19.10;;
3943;SDS011;1986;52.546;13.428;2023-05-19T06:31:31;19.20;;;18.20;;
3943;SDS011;1986;52.546;13.428;2023-05-19T06:33:58;19.50;;;18.40;;
3943;SDS011;1986;52.546;13.428;2023-05-19T06:36:25;20.60;;;19.23;;
3943;SDS011;1986;52.546;13.428;2023-05-19T06:38:52;21.80;;;20.50;;
3943;SDS011;1986;52.546;13.428;2023-05-19T06:41:20;21.17;;;19.80;;
3943;SDS011;1986;52.546;13.428;2023-05-19T06:43:47;20.00;;;18.83;;
3943;SDS011;1986;52.546;13.428;2023-05-19T06:46:16;20.20;;;19.00;;
3943;SDS011;1986;52.546;13.428;2023-05-19T06:48:50;20.50;;;19.30;;
3943;SDS011;1986;52.546;13.428;2023-05-19T06:51:17;19.97;;;18.87;;
3943;SDS011;1986;52.546;13.428;2023-05-19T06:53:46;19.80;;;18.70;;
3943;SDS011;1986;52.546;13.428;2023-05-19T06:56:12;20.83;;;19.63;;
3943;SDS011;1986;52.546;13.428;2023-05-19T06:58:40;21.10;;;19.80;;
3943;SDS011;1986;52.546;13.428;2023-05-19T07:01:07;20.53;;;19.33;;
3943;SDS011;1986;52.546;13.428;2023-05-19T07:03:36;20.60;;;19.40;;
3943;SDS011;1986;52.546;13.428;2023-05-19T07:06:04;21.00;;;19.80;;
3943;SDS011;1986;52.546;13.428;2023-05-19T07:08:31;20.80;;;19.50;;
3943;SDS011;1986;52.546;13.428;2023-05-19T07:10:58;21.50;;;20.13;;
3943;SDS011;1986;52.546;13.428;2023-05-19T07:13:25;20.50;;;19.20;;
3943;SDS011;1986;52.546;13.428;2023-05-19T07:15:53;20.40;;;19.20;;
3943;SDS011;1986;52.546;13.428;2023-05-19T07:18:20;20.70;;;19.50;;
3943;SDS011;1986;52.546;13.428;2023-05-19T07:20:47;21.10;;;19.80;;
3943;SDS011;1986;52.546;13.428;2023-05-19T07:23:18;21.00;;;19.70;;
3943;SDS011;1986;52.546;13.428;2023-05-19T07:25:48;21.30;;;20.00;;
3943;SDS011;1986;52.546;13.428;2023-05-19T07:28:19;21.10;;;19.80;;
3943;SDS011;1986;52.546;13.428;2023-05-19T07:30:46;20.87;;;19.60;;
3943;SDS011;1986;52.546;13.428;2023-05-19T07:33:13;20.57;;;19.37;;
3943;SDS011;1986;52.546;13.428;2023-05-19T07:35:40;20.90;;;19.60;;
3943;SDS011;1986;52.546;13.428;2023-05-19T07:38:10;20.93;;;19.63;;
3943;SDS011;1986;52.546;13.428;2023-05-19T07:40:38;20.80;;;19.60;;
3943;SDS011;1986;52.546;13.428;2023-05-19T07:43:05;21.80;;;20.30;;
3943;SDS011;1986;52.546;13.428;2023-05-19T07:45:32;21.87;;;20.20;;
3943;SDS011;1986;52.546;13.428;2023-05-19T07:47:59;21.57;;;20.20;;
3943;SDS011;1986;52.546;13.428;2023-05-19T07:50:26;22.13;;;20.50;;
3943;SDS011;1986;52.546;13.428;2023-05-19T07:52:53;22.00;;;20.60;;
3943;SDS011;1986;52.546;13.428;2023-05-19T07:55:20;21.97;;;20.57;;
3943;SDS011;1986;52.546;13.428;2023-05-19T07:57:49;23.50;;;21.80;;
3943;SDS011;1986;52.546;13.428;2023-05-19T08:00:16;23.33;;;21.83;;
3943;SDS011;1986;52.546;13.428;2023-05-19T08:02:46;22.90;;;21.40;;
3943;SDS011;1986;52.546;13.428;2023-05-19T08:05:17;27.83;;;22.57;;
3943;SDS011;1986;52.546;13.428;2023-05-19T08:07:44;23.33;;;21.83;;
3943;SDS011;1986;52.546;13.428;2023-05-19T08:10:11;23.50;;;21.90;;
3943;SDS011;1986;52.546;13.428;2023-05-19T08:12:38;26.43;;;24.20;;
3943;SDS011;1986;52.546;13.428;2023-05-19T08:15:07;27.30;;;25.53;;
3943;SDS011;1986;52.546;13.428;2023-05-19T08:17:35;27.13;;;25.33;;
3943;SDS011;1986;52.546;13.428;2023-05-19T08:20:02;26.30;;;24.50;;
3943;SDS011;1986;52.546;13.428;2023-05-19T08:22:32;25.60;;;23.90;;
3943;SDS011;1986;52.546;13.428;2023-05-19T08:25:02;27.53;;;25.70;;
3943;SDS011;1986;52.546;13.428;2023-05-19T08:27:30;29.60;;;27.57;;
3943;SDS011;1986;52.546;13.428;2023-05-19T08:29:57;28.53;;;26.53;;
3943;SDS011;1986;52.546;13.428;2023-05-19T08:32:25;29.03;;;26.93;;
3943;SDS011;1986;52.546;13.428;2023-05-19T08:34:52;30.73;;;28.33;;
3943;SDS011;1986;52.546;13.428;2023-05-19T08:37:20;29.17;;;27.07;;
3943;SDS011;1986;52.546;13.428;2023-05-19T08:39:49;27.50;;;25.60;;
3943;SDS011;1986;52.546;13.428;2023-05-19T08:42:16;27.50;;;25.60;;
3943;SDS011;1986;52.546;13.428;2023-05-19T08:44:43;28.23;;;26.23;;
3943;SDS011;1986;52.546;13.428;2023-05-19T08:47:10;27.70;;;25.70;;
3943;SDS011;1986;52.546;13.428;2023-05-19T08:49:43;27.40;;;25.50;;
3943;SDS011;1986;52.546;13.428;2023-05-19T08:52:15;27.00;;;25.10;;
3943;SDS011;1986;52.546;13.428;2023-05-19T08:54:49;28.43;;;26.43;;
3943;SDS011;1986;52.546;13.428;2023-05-19T08:57:25;28.73;;;26.50;;
3943;SDS011;1986;52.546;13.428;2023-05-19T08:59:54;27.63;;;25.63;;
3943;SDS011;1986;52.546;13.428;2023-05-19T09:02:22;27.50;;;25.60;;
3943;SDS011;1986;52.546;13.428;2023-05-19T09:04:51;27.33;;;25.33;;
3943;SDS011;1986;52.546;13.428;2023-05-19T09:07:21;28.40;;;26.40;;
3943;SDS011;1986;52.546;13.428;2023-05-19T09:09:50;28.47;;;26.40;;
3943;SDS011;1986;52.546;13.428;2023-05-19T09:12:17;28.70;;;26.70;;
3943;SDS011;1986;52.546;13.428;2023-05-19T09:14:45;27.60;;;25.50;;
3943;SDS011;1986;52.546;13.428;2023-05-19T09:17:13;27.87;;;25.87;;
3943;SDS011;1986;52.546;13.428;2023-05-19T09:19:42;27.13;;;25.10;;
3943;SDS011;1986;52.546;13.428;2023-05-19T09:22:15;27.50;;;25.50;;
3943;SDS011;1986;52.546;13.428;2023-05-19T09:24:46;27.60;;;25.60;;
3943;SDS011;1986;52.546;13.428;2023-05-19T09:27:20;27.43;;;25.23;;
3943;SDS011;1986;52.546;13.428;2023-05-19T09:29:53;28.00;;;25.90;;
3943;SDS011;1986;52.546;13.428;2023-05-19T09:32:23;28.40;;;26.40;;
3943;SDS011;1986;52.546;13.428;2023-05-19T09:34:59;27.60;;;25.57;;
3943;SDS011;1986;52.546;13.428;2023-05-19T09:37:37;29.63;;;27.13;;
3943;SDS011;1986;52.546;13.428;2023-05-19T09:40:20;28.13;;;26.03;;
3943;SDS011;1986;52.546;13.428;2023-05-19T09:43:07;28.20;;;26.10;;
3943;SDS011;1986;52.546;13.428;2023-05-19T09:45:53;28.80;;;26.60;;
3943;SDS011;1986;52.546;13.428;2023-05-19T09:48:29;30.00;;;27.80;;
3943;SDS011;1986;52.546;13.428;2023-05-19T09:50:57;29.10;;;27.00;;
3943;SDS011;1986;52.546;13.428;2023-05-19T09:53:30;29.83;;;27.33;;
3943;SDS011;1986;52.546;13.428;2023-05-19T09:56:03;28.30;;;26.37;;
3943;SDS011;1986;52.546;13.428;2023-05-19T09:58:34;29.50;;;27.40;;
3943;SDS011;1986;52.546;13.428;2023-05-19T10:01:03;29.33;;;27.13;;
3943;SDS011;1986;52.546;13.428;2023-05-19T10:03:30;28.70;;;26.70;;
3943;SDS011;1986;52.546;13.428;2023-05-19T10:06:02;27.60;;;25.70;;
3943;SDS011;1986;52.546;13.428;2023-05-19T10:11:27;27.90;;;25.90;;
3943;SDS011;1986;52.546;13.428;2023-05-19T10:13:58;28.07;;;25.87;;
3943;SDS011;1986;52.546;13.428;2023-05-19T10:16:27;28.03;;;26.00;;
3943;SDS011;1986;52.546;13.428;2023-05-19T10:18:56;27.50;;;25.50;;
3943;SDS011;1986;52.546;13.428;2023-05-19T10:21:27;29.80;;;27.70;;
3943;SDS011;1986;52.546;13.428;2023-05-19T10:24:00;29.70;;;27.60;;
3943;SDS011;1986;52.546;13.428;2023-05-19T10:26:39;30.87;;;28.10;;
3943;SDS011;1986;52.546;13.428;2023-05-19T10:29:10;29.93;;;27.73;;
3943;SDS011;1986;52.546;13.428;2023-05-19T10:31:44;28.50;;;26.40;;
3943;SDS011;1986;52.546;13.428;2023-05-19T10:37:40;27.60;;;25.60;;
3943;SDS011;1986;52.546;13.428;2023-05-19T10:40:16;27.70;;;25.70;;
3943;SDS011;1986;52.546;13.428;2023-05-19T10:43:05;27.60;;;25.60;;
3943;SDS011;1986;52.546;13.428;2023-05-19T10:45:48;27.50;;;25.40;;
3943;SDS011;1986;52.546;13.428;2023-05-19T10:48:21;28.70;;;26.60;;
3943;SDS011;1986;52.546;13.428;2023-05-19T10:50:51;27.17;;;25.07;;
3943;SDS011;1986;52.546;13.428;2023-05-19T10:53:20;28.83;;;25.60;;
3943;SDS011;1986;52.546;13.428;2023-05-19T10:58:58;28.23;;;26.23;;
3943;SDS011;1986;52.546;13.428;2023-05-19T11:01:29;29.00;;;26.90;;
3943;SDS011;1986;52.546;13.428;2023-05-19T11:04:08;28.30;;;26.30;;
3943;SDS011;1986;52.546;13.428;2023-05-19T11:06:36;27.70;;;25.70;;
3943;SDS011;1986;52.546;13.428;2023-05-19T11:09:09;28.30;;;26.20;;
3943;SDS011;1986;52.546;13.428;2023-05-19T11:11:45;28.67;;;26.50;;
3943;SDS011;1986;52.546;13.428;2023-05-19T11:14:15;27.47;;;25.47;;
3943;SDS011;1986;52.546;13.428;2023-05-19T11:16:47;28.47;;;26.37;;
3943;SDS011;1986;52.546;13.428;2023-05-19T11:19:18;28.27;;;26.17;;
3943;SDS011;1986;52.546;13.428;2023-05-19T11:21:54;28.10;;;26.00;;
3943;SDS011;1986;52.546;13.428;2023-05-19T11:24:34;27.90;;;25.70;;
3943;SDS011;1986;52.546;13.428;2023-05-19T11:30:07;28.00;;;25.80;;
3943;SDS011;1986;52.546;13.428;2023-05-19T11:32:48;28.70;;;26.50;;
3943;SDS011;1986;52.546;13.428;2023-05-19T11:35:18;29.20;;;27.00;;
3943;SDS011;1986;52.546;13.428;2023-05-19T11:37:53;29.03;;;26.83;;
3943;SDS011;1986;52.546;13.428;2023-05-19T11:40:21;28.40;;;26.20;;
3943;SDS011;1986;52.546;13.428;2023-05-19T11:42:49;28.53;;;26.43;;
3943;SDS011;1986;52.546;13.428;2023-05-19T11:45:22;29.33;;;27.13;;
3943;SDS011;1986;52.546;13.428;2023-05-19T11:47:57;28.10;;;25.90;;
3943;SDS011;1986;52.546;13.428;2023-05-19T11:50:24;28.30;;;26.30;;
3943;SDS011;1986;52.546;13.428;2023-05-19T11:52:52;29.23;;;27.13;;
3943;SDS011;1986;52.546;13.428;2023-05-19T11:55:19;29.07;;;26.87;;
3943;SDS011;1986;52.546;13.428;2023-05-19T11:57:55;31.00;;;28.60;;
3943;SDS011;1986;52.546;13.428;2023-05-19T12:00:28;29.53;;;27.23;;
3943;SDS011;1986;52.546;13.428;2023-05-19T12:02:57;28.90;;;26.70;;
3943;SDS011;1986;52.546;13.428;2023-05-19T12:05:28;29.33;;;27.20;;
3943;SDS011;1986;52.546;13.428;2023-05-19T12:07:56;30.03;;;27.90;;
3943;SDS011;1986;52.546;13.428;2023-05-19T12:10:26;29.20;;;27.10;;
3943;SDS011;1986;52.546;13.428;2023-05-19T12:12:54;29.03;;;26.93;;
3943;SDS011;1986;52.546;13.428;2023-05-19T12:15:22;30.57;;;28.27;;
3943;SDS011;1986;52.546;13.428;2023-05-19T12:17:56;30.00;;;27.70;;
3943;SDS011;1986;52.546;13.428;2023-05-19T12:20:30;29.77;;;27.47;;
3943;SDS011;1986;52.546;13.428;2023-05-19T12:22:59;29.50;;;27.30;;
3943;SDS011;1986;52.546;13.428;2023-05-19T12:25:31;30.20;;;28.00;;
3943;SDS011;1986;52.546;13.428;2023-05-19T12:27:59;30.73;;;28.03;;
3943;SDS011;1986;52.546;13.428;2023-05-19T12:30:28;30.23;;;27.93;;
3943;SDS011;1986;52.546;13.428;2023-05-19T12:32:58;29.57;;;27.47;;
3943;SDS011;1986;52.546;13.428;2023-05-19T12:35:26;31.10;;;28.80;;
3943;SDS011;1986;52.546;13.428;2023-05-19T12:37:53;30.40;;;28.20;;
3943;SDS011;1986;52.546;13.428;2023-05-19T12:40:21;29.73;;;27.53;;
3943;SDS011;1986;52.546;13.428;2023-05-19T12:42:55;30.70;;;28.50;;
3943;SDS011;1986;52.546;13.428;2023-05-19T12:45:33;29.77;;;27.57;;
3943;SDS011;1986;52.546;13.428;2023-05-19T12:51:08;31.43;;;29.13;;
3943;SDS011;1986;52.546;13.428;2023-05-19T12:53:36;30.70;;;28.50;;
3943;SDS011;1986;52.546;13.428;2023-05-19T12:56:09;31.00;;;28.60;;
3943;SDS011;1986;52.546;13.428;2023-05-19T12:58:40;31.10;;;28.80;;
3943;SDS011;1986;52.546;13.428;2023-05-19T13:01:13;32.03;;;29.63;;
3943;SDS011;1986;52.546;13.428;2023-05-19T13:03:44;31.30;;;29.00;;
3943;SDS011;1986;52.546;13.428;2023-05-19T13:06:11;31.30;;;29.00;;
3943;SDS011;1986;52.546;13.428;2023-05-19T13:08:39;30.80;;;28.60;;
3943;SDS011;1986;52.546;13.428;2023-05-19T13:11:07;31.90;;;29.70;;
3943;SDS011;1986;52.546;13.428;2023-05-19T13:13:33;32.17;;;29.87;;
3943;SDS011;1986;52.546;13.428;2023-05-19T13:16:01;31.50;;;29.30;;
3943;SDS011;1986;52.546;13.428;2023-05-19T13:18:29;30.83;;;28.60;;
3943;SDS011;1986;52.546;13.428;2023-05-19T13:21:00;31.57;;;29.23;;
3943;SDS011;1986;52.546;13.428;2023-05-19T13:23:28;31.47;;;29.17;;
3943;SDS011;1986;52.546;13.428;2023-05-19T13:25:55;31.10;;;28.80;;
3943;SDS011;1986;52.546;13.428;2023-05-19T13:28:23;29.80;;;27.70;;
3943;SDS011;1986;52.546;13.428;2023-05-19T13:30:52;28.40;;;26.30;;
3943;SDS011;1986;52.546;13.428;2023-05-19T13:33:24;29.00;;;26.37;;
3943;SDS011;1986;52.546;13.428;2023-05-19T13:35:51;29.17;;;26.97;;
3943;SDS011;1986;52.546;13.428;2023-05-19T13:38:22;29.90;;;27.70;;
3943;SDS011;1986;52.546;13.428;2023-05-19T13:40:54;29.00;;;26.80;;
3943;SDS011;1986;52.546;13.428;2023-05-19T13:43:21;29.77;;;27.37;;
3943;SDS011;1986;52.546;13.428;2023-05-19T13:45:48;29.10;;;26.90;;
3943;SDS011;1986;52.546;13.428;2023-05-19T13:48:15;28.40;;;26.40;;
3943;SDS011;1986;52.546;13.428;2023-05-19T13:50:43;29.00;;;26.70;;
3943;SDS011;1986;52.546;13.428;2023-05-19T13:53:10;29.10;;;26.90;;
3943;SDS011;1986;52.546;13.428;2023-05-19T13:55:38;29.07;;;26.73;;
3943;SDS011;1986;52.546;13.428;2023-05-19T13:58:05;30.63;;;27.93;;
3943;SDS011;1986;52.546;13.428;2023-05-19T14:00:34;28.60;;;26.47;;
3943;SDS011;1986;52.546;13.428;2023-05-19T14:03:02;29.33;;;27.13;;
3943;SDS011;1986;52.546;13.428;2023-05-19T14:05:29;32.63;;;29.60;;
3943;SDS011;1986;52.546;13.428;2023-05-19T14:08:02;31.17;;;28.97;;
3943;SDS011;1986;52.546;13.428;2023-05-19T14:10:29;31.10;;;28.90;;
3943;SDS011;1986;52.546;13.428;2023-05-19T14:12:58;31.73;;;29.43;;
3943;SDS011;1986;52.546;13.428;2023-05-19T14:15:26;31.77;;;28.63;;
3943;SDS011;1986;52.546;13.428;2023-05-19T14:18:00;30.73;;;28.53;;
3943;SDS011;1986;52.546;13.428;2023-05-19T14:20:27;30.40;;;28.10;;
3943;SDS011;1986;52.546;13.428;2023-05-19T14:22:54;28.50;;;26.40;;
3943;SDS011;1986;52.546;13.428;2023-05-19T14:25:24;29.77;;;27.67;;
3943;SDS011;1986;52.546;13.428;2023-05-19T14:27:51;28.97;;;26.87;;
3943;SDS011;1986;52.546;13.428;2023-05-19T14:30:20;28.73;;;26.63;;
3943;SDS011;1986;52.546;13.428;2023-05-19T14:32:47;28.70;;;26.60;;
3943;SDS011;1986;52.546;13.428;2023-05-19T14:35:15;27.87;;;25.77;;
3943;SDS011;1986;52.546;13.428;2023-05-19T14:37:42;28.47;;;26.47;;
3943;SDS011;1986;52.546;13.428;2023-05-19T14:40:10;28.00;;;25.90;;
3943;SDS011;1986;52.546;13.428;2023-05-19T14:42:38;28.70;;;26.60;;
3943;SDS011;1986;52.546;13.428;2023-05-19T14:45:05;30.17;;;27.90;;
3943;SDS011;1986;52.546;13.428;2023-05-19T14:47:37;27.77;;;25.77;;
3943;SDS011;1986;52.546;13.428;2023-05-19T14:50:04;27.97;;;25.87;;
3943;SDS011;1986;52.546;13.428;2023-05-19T14:52:35;30.33;;;28.03;;
3943;SDS011;1986;52.546;13.428;2023-05-19T14:55:05;28.40;;;26.20;;
3943;SDS011;1986;52.546;13.428;2023-05-19T14:57:35;37.30;;;26.67;;
3943;SDS011;1986;52.546;13.428;2023-05-19T15:00:03;27.63;;;25.53;;
3943;SDS011;1986;52.546;13.428;2023-05-19T15:02:50;28.53;;;26.43;;
3943;SDS011;1986;52.546;13.428;2023-05-19T15:05:18;30.23;;;28.03;;
3943;SDS011;1986;52.546;13.428;2023-05-19T15:07:49;28.53;;;26.33;;
3943;SDS011;1986;52.546;13.428;2023-05-19T15:10:16;29.03;;;26.83;;
3943;SDS011;1986;52.546;13.428;2023-05-19T15:12:44;30.33;;;28.23;;
3943;SDS011;1986;52.546;13.428;2023-05-19T15:15:11;28.47;;;26.37;;
3943;SDS011;1986;52.546;13.428;2023-05-19T15:17:45;29.87;;;27.67;;